sensor_id;sensor_type;location;lat;lon;timestamp;P1;durP1;ratioP1;P2;durP2;ratioP2
56541;SDS011;42438;53.174;6.730;2024-01-30T00:00:57;26.35;;;14.85;;
56541;SDS011;42438;53.174;6.730;2024-01-30T00:03:28;29.35;;;16.00;;
56541;SDS011;42438;53.174;6.730;2024-01-30T00:06:00;24.45;;;14.15;;
56541;SDS011;42438;53.174;6.730;2024-01-30T00:08:30;24.90;;;14.60;;
56541;SDS011;42438;53.174;6.730;2024-01-30T00:11:01;24.92;;;15.00;;
56541;SDS011;42438;53.174;6.730;2024-01-30T00:13:31;26.20;;;13.88;;
56541;SDS011;42438;53.174;6.730;2024-01-30T00:16:02;23.65;;;14.45;;
56541;SDS011;42438;53.174;6.730;2024-01-30T00:18:34;25.95;;;14.73;;
56541;SDS011;42438;53.174;6.730;2024-01-30T00:21:04;26.83;;;14.38;;
56541;SDS011;42438;53.174;6.730;2024-01-30T00:23:35;25.48;;;14.35;;
56541;SDS011;42438;53.174;6.730;2024-01-30T00:26:06;25.52;;;15.82;;
56541;SDS011;42438;53.174;6.730;2024-01-30T00:28:37;26.30;;;15.32;;
56541;SDS011;42438;53.174;6.730;2024-01-30T00:31:08;27.60;;;15.20;;
56541;SDS011;42438;53.174;6.730;2024-01-30T00:33:42;23.60;;;14.45;;
56541;SDS011;42438;53.174;6.730;2024-01-30T00:36:13;26.38;;;15.15;;
56541;SDS011;42438;53.174;6.730;2024-01-30T00:38:43;24.40;;;14.95;;
56541;SDS011;42438;53.174;6.730;2024-01-30T00:41:15;27.33;;;15.27;;
56541;SDS011;42438;53.174;6.730;2024-01-30T00:43:48;27.60;;;15.00;;
56541;SDS011;42438;53.174;6.730;2024-01-30T00:46:19;31.02;;;16.08;;
56541;SDS011;42438;53.174;6.730;2024-01-30T00:48:50;28.73;;;15.80;;
56541;SDS011;42438;53.174;6.730;2024-01-30T00:51:20;26.95;;;15.10;;
56541;SDS011;42438;53.174;6.730;2024-01-30T00:53:51;26.33;;;15.68;;
56541;SDS011;42438;53.174;6.730;2024-01-30T00:56:22;26.70;;;15.38;;
56541;SDS011;42438;53.174;6.730;2024-01-30T00:58:54;28.45;;;16.52;;
56541;SDS011;42438;53.174;6.730;2024-01-30T01:01:24;28.02;;;16.30;;
56541;SDS011;42438;53.174;6.730;2024-01-30T01:03:55;26.13;;;15.43;;
56541;SDS011;42438;53.174;6.730;2024-01-30T01:06:26;28.73;;;15.45;;
56541;SDS011;42438;53.174;6.730;2024-01-30T01:08:56;26.60;;;15.57;;
56541;SDS011;42438;53.174;6.730;2024-01-30T01:11:27;28.05;;;15.50;;
56541;SDS011;42438;53.174;6.730;2024-01-30T01:13:58;27.25;;;16.35;;
56541;SDS011;42438;53.174;6.730;2024-01-30T01:16:28;25.98;;;15.35;;
56541;SDS011;42438;53.174;6.730;2024-01-30T01:18:59;25.10;;;15.18;;
56541;SDS011;42438;53.174;6.730;2024-01-30T01:21:30;30.38;;;16.48;;
56541;SDS011;42438;53.174;6.730;2024-01-30T01:24:00;26.10;;;15.95;;
56541;SDS011;42438;53.174;6.730;2024-01-30T01:26:31;28.55;;;16.35;;
56541;SDS011;42438;53.174;6.730;2024-01-30T01:29:02;25.40;;;15.52;;
56541;SDS011;42438;53.174;6.730;2024-01-30T01:31:39;28.50;;;16.75;;
56541;SDS011;42438;53.174;6.730;2024-01-30T01:34:13;25.40;;;14.80;;
56541;SDS011;42438;53.174;6.730;2024-01-30T01:36:44;27.48;;;16.25;;
56541;SDS011;42438;53.174;6.730;2024-01-30T01:39:15;28.48;;;15.70;;
56541;SDS011;42438;53.174;6.730;2024-01-30T01:41:46;27.00;;;15.75;;
56541;SDS011;42438;53.174;6.730;2024-01-30T01:44:17;26.17;;;15.25;;
56541;SDS011;42438;53.174;6.730;2024-01-30T01:46:48;27.52;;;15.63;;
56541;SDS011;42438;53.174;6.730;2024-01-30T01:49:19;25.38;;;15.27;;
56541;SDS011;42438;53.174;6.730;2024-01-30T01:51:51;24.50;;;15.00;;
56541;SDS011;42438;53.174;6.730;2024-01-30T01:54:24;27.60;;;15.55;;
56541;SDS011;42438;53.174;6.730;2024-01-30T01:56:56;29.20;;;16.33;;
56541;SDS011;42438;53.174;6.730;2024-01-30T01:59:27;28.33;;;15.30;;
56541;SDS011;42438;53.174;6.730;2024-01-30T02:01:58;26.00;;;14.77;;
56541;SDS011;42438;53.174;6.730;2024-01-30T02:04:29;28.77;;;15.43;;
56541;SDS011;42438;53.174;6.730;2024-01-30T02:06:59;25.48;;;14.02;;
56541;SDS011;42438;53.174;6.730;2024-01-30T02:09:30;22.60;;;14.32;;
56541;SDS011;42438;53.174;6.730;2024-01-30T02:12:01;25.67;;;14.65;;
56541;SDS011;42438;53.174;6.730;2024-01-30T02:14:32;26.65;;;14.10;;
56541;SDS011;42438;53.174;6.730;2024-01-30T02:17:03;24.45;;;13.65;;
56541;SDS011;42438;53.174;6.730;2024-01-30T02:19:33;26.05;;;14.20;;
56541;SDS011;42438;53.174;6.730;2024-01-30T02:22:04;24.02;;;13.88;;
56541;SDS011;42438;53.174;6.730;2024-01-30T02:24:35;27.35;;;16.63;;
56541;SDS011;42438;53.174;6.730;2024-01-30T02:27:06;28.00;;;14.98;;
56541;SDS011;42438;53.174;6.730;2024-01-30T02:29:36;24.83;;;14.82;;
56541;SDS011;42438;53.174;6.730;2024-01-30T02:32:07;27.50;;;14.88;;
56541;SDS011;42438;53.174;6.730;2024-01-30T02:34:38;23.15;;;13.90;;
56541;SDS011;42438;53.174;6.730;2024-01-30T02:37:08;26.60;;;14.95;;
56541;SDS011;42438;53.174;6.730;2024-01-30T02:39:39;25.33;;;15.02;;
56541;SDS011;42438;53.174;6.730;2024-01-30T02:42:10;24.27;;;15.15;;
56541;SDS011;42438;53.174;6.730;2024-01-30T02:44:40;24.00;;;14.23;;
56541;SDS011;42438;53.174;6.730;2024-01-30T02:47:11;26.00;;;14.57;;
56541;SDS011;42438;53.174;6.730;2024-01-30T02:49:41;27.10;;;15.60;;
56541;SDS011;42438;53.174;6.730;2024-01-30T02:52:12;25.45;;;14.93;;
56541;SDS011;42438;53.174;6.730;2024-01-30T02:54:43;25.55;;;14.82;;
56541;SDS011;42438;53.174;6.730;2024-01-30T02:57:13;26.98;;;15.07;;
56541;SDS011;42438;53.174;6.730;2024-01-30T02:59:44;21.42;;;13.43;;
56541;SDS011;42438;53.174;6.730;2024-01-30T03:02:15;24.58;;;14.18;;
56541;SDS011;42438;53.174;6.730;2024-01-30T03:04:45;21.00;;;13.35;;
56541;SDS011;42438;53.174;6.730;2024-01-30T03:07:16;25.73;;;14.10;;
56541;SDS011;42438;53.174;6.730;2024-01-30T03:09:47;26.95;;;14.18;;
56541;SDS011;42438;53.174;6.730;2024-01-30T03:12:18;24.98;;;14.57;;
56541;SDS011;42438;53.174;6.730;2024-01-30T03:14:49;25.65;;;14.07;;
56541;SDS011;42438;53.174;6.730;2024-01-30T03:17:19;26.65;;;14.27;;
56541;SDS011;42438;53.174;6.730;2024-01-30T03:19:50;25.70;;;14.77;;
56541;SDS011;42438;53.174;6.730;2024-01-30T03:22:21;24.23;;;14.07;;
56541;SDS011;42438;53.174;6.730;2024-01-30T03:24:51;24.90;;;14.23;;
56541;SDS011;42438;53.174;6.730;2024-01-30T03:27:22;22.70;;;13.57;;
56541;SDS011;42438;53.174;6.730;2024-01-30T03:29:53;26.73;;;14.15;;
56541;SDS011;42438;53.174;6.730;2024-01-30T03:32:23;25.70;;;13.98;;
56541;SDS011;42438;53.174;6.730;2024-01-30T03:34:54;23.42;;;14.20;;
56541;SDS011;42438;53.174;6.730;2024-01-30T03:37:25;25.00;;;12.77;;
56541;SDS011;42438;53.174;6.730;2024-01-30T03:39:55;22.65;;;14.02;;
56541;SDS011;42438;53.174;6.730;2024-01-30T03:42:26;25.48;;;14.38;;
56541;SDS011;42438;53.174;6.730;2024-01-30T03:44:57;24.90;;;13.73;;
56541;SDS011;42438;53.174;6.730;2024-01-30T03:47:27;26.17;;;14.50;;
56541;SDS011;42438;53.174;6.730;2024-01-30T03:49:58;25.20;;;14.52;;
56541;SDS011;42438;53.174;6.730;2024-01-30T03:52:29;24.77;;;13.57;;
56541;SDS011;42438;53.174;6.730;2024-01-30T03:55:00;23.13;;;13.30;;
56541;SDS011;42438;53.174;6.730;2024-01-30T03:57:31;22.10;;;14.00;;
56541;SDS011;42438;53.174;6.730;2024-01-30T04:00:01;24.45;;;13.73;;
56541;SDS011;42438;53.174;6.730;2024-01-30T04:02:35;20.30;;;12.88;;
56541;SDS011;42438;53.174;6.730;2024-01-30T04:05:05;25.30;;;14.32;;
56541;SDS011;42438;53.174;6.730;2024-01-30T04:07:36;23.20;;;13.43;;
56541;SDS011;42438;53.174;6.730;2024-01-30T04:10:07;23.38;;;13.73;;
56541;SDS011;42438;53.174;6.730;2024-01-30T04:12:38;24.80;;;13.85;;
56541;SDS011;42438;53.174;6.730;2024-01-30T04:15:09;23.65;;;13.73;;
56541;SDS011;42438;53.174;6.730;2024-01-30T04:17:39;20.65;;;12.50;;
56541;SDS011;42438;53.174;6.730;2024-01-30T04:20:16;23.63;;;13.60;;
56541;SDS011;42438;53.174;6.730;2024-01-30T04:22:47;21.08;;;12.68;;
56541;SDS011;42438;53.174;6.730;2024-01-30T04:25:18;24.48;;;14.65;;
56541;SDS011;42438;53.174;6.730;2024-01-30T04:27:49;24.48;;;13.75;;
56541;SDS011;42438;53.174;6.730;2024-01-30T04:30:19;23.40;;;13.38;;
56541;SDS011;42438;53.174;6.730;2024-01-30T04:32:50;26.42;;;13.82;;
56541;SDS011;42438;53.174;6.730;2024-01-30T04:35:21;23.40;;;13.68;;
56541;SDS011;42438;53.174;6.730;2024-01-30T04:37:54;24.27;;;13.45;;
56541;SDS011;42438;53.174;6.730;2024-01-30T04:40:25;24.77;;;13.93;;
56541;SDS011;42438;53.174;6.730;2024-01-30T04:42:56;24.25;;;13.25;;
56541;SDS011;42438;53.174;6.730;2024-01-30T04:45:26;22.60;;;14.13;;
56541;SDS011;42438;53.174;6.730;2024-01-30T04:47:57;25.52;;;13.52;;
56541;SDS011;42438;53.174;6.730;2024-01-30T04:50:27;24.25;;;12.75;;
56541;SDS011;42438;53.174;6.730;2024-01-30T04:52:58;22.00;;;13.30;;
56541;SDS011;42438;53.174;6.730;2024-01-30T04:55:29;25.13;;;13.07;;
56541;SDS011;42438;53.174;6.730;2024-01-30T04:57:59;22.13;;;12.13;;
56541;SDS011;42438;53.174;6.730;2024-01-30T05:00:30;20.50;;;13.57;;
56541;SDS011;42438;53.174;6.730;2024-01-30T05:03:01;24.13;;;12.32;;
56541;SDS011;42438;53.174;6.730;2024-01-30T05:05:31;22.83;;;13.20;;
56541;SDS011;42438;53.174;6.730;2024-01-30T05:08:02;20.55;;;12.07;;
56541;SDS011;42438;53.174;6.730;2024-01-30T05:10:33;20.38;;;12.18;;
56541;SDS011;42438;53.174;6.730;2024-01-30T05:13:04;23.05;;;12.68;;
56541;SDS011;42438;53.174;6.730;2024-01-30T05:15:34;21.50;;;12.07;;
56541;SDS011;42438;53.174;6.730;2024-01-30T05:18:05;24.23;;;12.88;;
56541;SDS011;42438;53.174;6.730;2024-01-30T05:20:35;24.15;;;12.98;;
56541;SDS011;42438;53.174;6.730;2024-01-30T05:23:06;23.23;;;12.90;;
56541;SDS011;42438;53.174;6.730;2024-01-30T05:25:37;20.63;;;11.85;;
56541;SDS011;42438;53.174;6.730;2024-01-30T05:28:07;21.17;;;11.55;;
56541;SDS011;42438;53.174;6.730;2024-01-30T05:30:38;22.92;;;12.80;;
56541;SDS011;42438;53.174;6.730;2024-01-30T05:33:09;22.65;;;11.82;;
56541;SDS011;42438;53.174;6.730;2024-01-30T05:35:39;20.42;;;12.18;;
56541;SDS011;42438;53.174;6.730;2024-01-30T05:38:11;19.17;;;12.25;;
56541;SDS011;42438;53.174;6.730;2024-01-30T05:40:42;21.17;;;12.15;;
56541;SDS011;42438;53.174;6.730;2024-01-30T05:43:13;22.10;;;11.80;;
56541;SDS011;42438;53.174;6.730;2024-01-30T05:45:43;23.58;;;12.55;;
56541;SDS011;42438;53.174;6.730;2024-01-30T05:48:14;22.25;;;12.25;;
56541;SDS011;42438;53.174;6.730;2024-01-30T05:50:45;22.55;;;12.30;;
56541;SDS011;42438;53.174;6.730;2024-01-30T05:53:16;21.48;;;12.18;;
56541;SDS011;42438;53.174;6.730;2024-01-30T05:55:46;23.80;;;12.77;;
56541;SDS011;42438;53.174;6.730;2024-01-30T05:58:17;20.83;;;11.73;;
56541;SDS011;42438;53.174;6.730;2024-01-30T06:00:48;22.90;;;11.95;;
56541;SDS011;42438;53.174;6.730;2024-01-30T06:03:18;21.88;;;11.68;;
56541;SDS011;42438;53.174;6.730;2024-01-30T06:05:49;19.52;;;11.15;;
56541;SDS011;42438;53.174;6.730;2024-01-30T06:08:20;22.48;;;12.20;;
56541;SDS011;42438;53.174;6.730;2024-01-30T06:10:50;18.63;;;11.48;;
56541;SDS011;42438;53.174;6.730;2024-01-30T06:13:22;22.75;;;11.23;;
56541;SDS011;42438;53.174;6.730;2024-01-30T06:15:52;23.02;;;12.55;;
56541;SDS011;42438;53.174;6.730;2024-01-30T06:18:23;24.13;;;11.90;;
56541;SDS011;42438;53.174;6.730;2024-01-30T06:20:54;23.77;;;12.13;;
56541;SDS011;42438;53.174;6.730;2024-01-30T06:23:24;21.35;;;11.23;;
56541;SDS011;42438;53.174;6.730;2024-01-30T06:25:55;20.90;;;11.43;;
56541;SDS011;42438;53.174;6.730;2024-01-30T06:28:26;21.58;;;11.70;;
56541;SDS011;42438;53.174;6.730;2024-01-30T06:30:56;20.17;;;12.35;;
56541;SDS011;42438;53.174;6.730;2024-01-30T06:33:27;20.67;;;11.10;;
56541;SDS011;42438;53.174;6.730;2024-01-30T06:35:57;19.80;;;11.75;;
56541;SDS011;42438;53.174;6.730;2024-01-30T06:38:28;23.63;;;12.52;;
56541;SDS011;42438;53.174;6.730;2024-01-30T06:40:59;20.52;;;11.30;;
56541;SDS011;42438;53.174;6.730;2024-01-30T06:43:29;18.83;;;11.45;;
56541;SDS011;42438;53.174;6.730;2024-01-30T06:46:00;18.65;;;11.10;;
56541;SDS011;42438;53.174;6.730;2024-01-30T06:48:31;21.55;;;10.88;;
56541;SDS011;42438;53.174;6.730;2024-01-30T06:51:01;19.65;;;10.98;;
56541;SDS011;42438;53.174;6.730;2024-01-30T06:53:32;18.15;;;11.50;;
56541;SDS011;42438;53.174;6.730;2024-01-30T06:56:03;20.15;;;12.05;;
56541;SDS011;42438;53.174;6.730;2024-01-30T06:58:33;19.83;;;11.32;;
56541;SDS011;42438;53.174;6.730;2024-01-30T07:01:04;19.45;;;11.45;;
56541;SDS011;42438;53.174;6.730;2024-01-30T07:03:35;16.50;;;11.07;;
56541;SDS011;42438;53.174;6.730;2024-01-30T07:06:05;18.95;;;11.07;;
56541;SDS011;42438;53.174;6.730;2024-01-30T07:08:36;18.08;;;11.15;;
56541;SDS011;42438;53.174;6.730;2024-01-30T07:11:08;20.15;;;10.98;;
56541;SDS011;42438;53.174;6.730;2024-01-30T07:13:39;18.10;;;10.52;;
56541;SDS011;42438;53.174;6.730;2024-01-30T07:16:10;19.88;;;10.18;;
56541;SDS011;42438;53.174;6.730;2024-01-30T07:18:41;20.20;;;11.32;;
56541;SDS011;42438;53.174;6.730;2024-01-30T07:21:11;19.02;;;10.93;;
56541;SDS011;42438;53.174;6.730;2024-01-30T07:23:42;19.02;;;10.98;;
56541;SDS011;42438;53.174;6.730;2024-01-30T07:26:13;18.85;;;10.88;;
56541;SDS011;42438;53.174;6.730;2024-01-30T07:28:44;19.95;;;10.85;;
56541;SDS011;42438;53.174;6.730;2024-01-30T07:31:14;19.98;;;12.50;;
56541;SDS011;42438;53.174;6.730;2024-01-30T07:33:45;21.25;;;11.38;;
56541;SDS011;42438;53.174;6.730;2024-01-30T07:36:16;19.75;;;10.50;;
56541;SDS011;42438;53.174;6.730;2024-01-30T07:38:46;16.95;;;10.55;;
56541;SDS011;42438;53.174;6.730;2024-01-30T07:41:17;19.52;;;10.43;;
56541;SDS011;42438;53.174;6.730;2024-01-30T07:43:47;16.83;;;10.20;;
56541;SDS011;42438;53.174;6.730;2024-01-30T07:46:18;17.60;;;11.65;;
56541;SDS011;42438;53.174;6.730;2024-01-30T07:48:49;19.02;;;10.98;;
56541;SDS011;42438;53.174;6.730;2024-01-30T07:51:23;21.08;;;11.15;;
56541;SDS011;42438;53.174;6.730;2024-01-30T07:53:54;15.80;;;10.48;;
56541;SDS011;42438;53.174;6.730;2024-01-30T07:56:28;19.55;;;10.05;;
56541;SDS011;42438;53.174;6.730;2024-01-30T07:58:58;19.05;;;10.95;;
56541;SDS011;42438;53.174;6.730;2024-01-30T08:01:29;19.60;;;10.75;;
56541;SDS011;42438;53.174;6.730;2024-01-30T08:04:00;17.77;;;11.45;;
56541;SDS011;42438;53.174;6.730;2024-01-30T08:06:30;18.92;;;11.90;;
56541;SDS011;42438;53.174;6.730;2024-01-30T08:09:01;19.92;;;12.00;;
56541;SDS011;42438;53.174;6.730;2024-01-30T08:11:32;22.65;;;11.00;;
56541;SDS011;42438;53.174;6.730;2024-01-30T08:14:03;19.00;;;10.95;;
56541;SDS011;42438;53.174;6.730;2024-01-30T08:16:33;19.52;;;11.05;;
56541;SDS011;42438;53.174;6.730;2024-01-30T08:19:04;20.40;;;11.32;;
56541;SDS011;42438;53.174;6.730;2024-01-30T08:21:35;20.30;;;11.20;;
56541;SDS011;42438;53.174;6.730;2024-01-30T08:24:06;19.75;;;10.75;;
56541;SDS011;42438;53.174;6.730;2024-01-30T08:26:37;18.33;;;10.98;;
56541;SDS011;42438;53.174;6.730;2024-01-30T08:29:08;18.92;;;11.07;;
56541;SDS011;42438;53.174;6.730;2024-01-30T08:31:39;18.65;;;10.32;;
56541;SDS011;42438;53.174;6.730;2024-01-30T08:34:10;16.10;;;9.90;;
56541;SDS011;42438;53.174;6.730;2024-01-30T08:36:40;20.02;;;10.75;;
56541;SDS011;42438;53.174;6.730;2024-01-30T08:39:11;18.80;;;11.05;;
56541;SDS011;42438;53.174;6.730;2024-01-30T08:41:42;18.45;;;10.15;;
56541;SDS011;42438;53.174;6.730;2024-01-30T08:44:12;18.65;;;10.88;;
56541;SDS011;42438;53.174;6.730;2024-01-30T08:46:46;17.73;;;10.63;;
56541;SDS011;42438;53.174;6.730;2024-01-30T08:49:17;18.85;;;10.40;;
56541;SDS011;42438;53.174;6.730;2024-01-30T08:51:47;16.83;;;10.15;;
56541;SDS011;42438;53.174;6.730;2024-01-30T08:54:18;20.08;;;11.07;;
56541;SDS011;42438;53.174;6.730;2024-01-30T08:56:49;19.73;;;11.05;;
56541;SDS011;42438;53.174;6.730;2024-01-30T08:59:20;19.15;;;10.25;;
56541;SDS011;42438;53.174;6.730;2024-01-30T09:01:50;18.38;;;10.18;;
56541;SDS011;42438;53.174;6.730;2024-01-30T09:04:24;18.00;;;11.00;;
56541;SDS011;42438;53.174;6.730;2024-01-30T09:06:55;18.08;;;9.45;;
56541;SDS011;42438;53.174;6.730;2024-01-30T09:09:26;20.27;;;10.85;;
56541;SDS011;42438;53.174;6.730;2024-01-30T09:11:56;18.17;;;9.85;;
56541;SDS011;42438;53.174;6.730;2024-01-30T09:14:32;17.80;;;9.88;;
56541;SDS011;42438;53.174;6.730;2024-01-30T09:17:03;16.35;;;9.68;;
56541;SDS011;42438;53.174;6.730;2024-01-30T09:19:34;16.73;;;10.02;;
56541;SDS011;42438;53.174;6.730;2024-01-30T09:22:04;14.15;;;9.13;;
56541;SDS011;42438;53.174;6.730;2024-01-30T09:24:35;17.65;;;9.95;;
56541;SDS011;42438;53.174;6.730;2024-01-30T09:27:05;16.38;;;9.30;;
56541;SDS011;42438;53.174;6.730;2024-01-30T09:29:36;17.38;;;9.65;;
56541;SDS011;42438;53.174;6.730;2024-01-30T09:32:07;18.17;;;9.45;;
56541;SDS011;42438;53.174;6.730;2024-01-30T09:34:39;17.75;;;9.57;;
56541;SDS011;42438;53.174;6.730;2024-01-30T09:37:09;18.63;;;10.75;;
56541;SDS011;42438;53.174;6.730;2024-01-30T09:39:40;16.70;;;9.38;;
56541;SDS011;42438;53.174;6.730;2024-01-30T09:42:28;15.27;;;8.93;;
56541;SDS011;42438;53.174;6.730;2024-01-30T09:45:07;15.52;;;9.10;;
56541;SDS011;42438;53.174;6.730;2024-01-30T09:47:41;18.45;;;10.20;;
56541;SDS011;42438;53.174;6.730;2024-01-30T09:50:14;16.73;;;9.65;;
56541;SDS011;42438;53.174;6.730;2024-01-30T09:52:46;16.38;;;9.00;;
56541;SDS011;42438;53.174;6.730;2024-01-30T09:55:17;16.23;;;9.35;;
56541;SDS011;42438;53.174;6.730;2024-01-30T09:57:48;18.95;;;9.82;;
56541;SDS011;42438;53.174;6.730;2024-01-30T10:00:19;16.25;;;9.07;;
56541;SDS011;42438;53.174;6.730;2024-01-30T10:02:50;15.20;;;8.95;;
56541;SDS011;42438;53.174;6.730;2024-01-30T10:05:21;17.95;;;9.75;;
56541;SDS011;42438;53.174;6.730;2024-01-30T10:07:57;16.60;;;8.88;;
56541;SDS011;42438;53.174;6.730;2024-01-30T10:10:29;14.65;;;8.82;;
56541;SDS011;42438;53.174;6.730;2024-01-30T10:12:59;19.50;;;9.02;;
56541;SDS011;42438;53.174;6.730;2024-01-30T10:15:30;16.48;;;8.80;;
56541;SDS011;42438;53.174;6.730;2024-01-30T10:18:01;15.98;;;9.57;;
56541;SDS011;42438;53.174;6.730;2024-01-30T10:20:32;16.25;;;8.80;;
56541;SDS011;42438;53.174;6.730;2024-01-30T10:23:04;19.60;;;9.57;;
56541;SDS011;42438;53.174;6.730;2024-01-30T10:25:35;17.42;;;8.98;;
56541;SDS011;42438;53.174;6.730;2024-01-30T10:28:06;14.48;;;8.68;;
56541;SDS011;42438;53.174;6.730;2024-01-30T10:30:36;16.23;;;9.48;;
56541;SDS011;42438;53.174;6.730;2024-01-30T10:33:07;18.92;;;9.27;;
56541;SDS011;42438;53.174;6.730;2024-01-30T10:35:37;18.90;;;9.85;;
56541;SDS011;42438;53.174;6.730;2024-01-30T10:38:08;14.48;;;9.23;;
56541;SDS011;42438;53.174;6.730;2024-01-30T10:40:43;19.98;;;9.52;;
56541;SDS011;42438;53.174;6.730;2024-01-30T10:43:15;15.63;;;9.23;;
56541;SDS011;42438;53.174;6.730;2024-01-30T10:45:50;18.55;;;10.43;;
56541;SDS011;42438;53.174;6.730;2024-01-30T10:48:24;15.52;;;8.88;;
56541;SDS011;42438;53.174;6.730;2024-01-30T10:51:00;17.13;;;8.60;;
56541;SDS011;42438;53.174;6.730;2024-01-30T10:53:34;16.63;;;9.02;;
56541;SDS011;42438;53.174;6.730;2024-01-30T10:56:05;14.93;;;8.98;;
56541;SDS011;42438;53.174;6.730;2024-01-30T10:58:36;17.67;;;9.32;;
56541;SDS011;42438;53.174;6.730;2024-01-30T11:01:07;18.50;;;9.10;;
56541;SDS011;42438;53.174;6.730;2024-01-30T11:03:39;14.65;;;8.88;;
56541;SDS011;42438;53.174;6.730;2024-01-30T11:06:11;17.35;;;9.40;;
56541;SDS011;42438;53.174;6.730;2024-01-30T11:08:44;14.95;;;9.25;;
56541;SDS011;42438;53.174;6.730;2024-01-30T11:11:16;20.25;;;9.15;;
56541;SDS011;42438;53.174;6.730;2024-01-30T11:13:46;18.33;;;10.13;;
56541;SDS011;42438;53.174;6.730;2024-01-30T11:16:20;17.17;;;9.40;;
56541;SDS011;42438;53.174;6.730;2024-01-30T11:18:51;17.77;;;9.68;;
56541;SDS011;42438;53.174;6.730;2024-01-30T11:21:22;19.48;;;10.18;;
56541;SDS011;42438;53.174;6.730;2024-01-30T11:26:30;15.20;;;9.38;;
56541;SDS011;42438;53.174;6.730;2024-01-30T11:29:06;23.80;;;11.73;;
56541;SDS011;42438;53.174;6.730;2024-01-30T11:31:38;20.75;;;11.05;;
56541;SDS011;42438;53.174;6.730;2024-01-30T11:34:08;17.30;;;9.68;;
56541;SDS011;42438;53.174;6.730;2024-01-30T11:36:40;16.30;;;10.52;;
56541;SDS011;42438;53.174;6.730;2024-01-30T11:41:46;19.63;;;10.65;;
56541;SDS011;42438;53.174;6.730;2024-01-30T11:44:21;18.48;;;10.02;;
56541;SDS011;42438;53.174;6.730;2024-01-30T11:46:52;18.65;;;10.05;;
56541;SDS011;42438;53.174;6.730;2024-01-30T11:49:23;18.92;;;10.55;;
56541;SDS011;42438;53.174;6.730;2024-01-30T11:51:53;20.10;;;10.52;;
56541;SDS011;42438;53.174;6.730;2024-01-30T11:54:24;17.38;;;9.85;;
56541;SDS011;42438;53.174;6.730;2024-01-30T11:56:55;19.15;;;8.85;;
56541;SDS011;42438;53.174;6.730;2024-01-30T11:59:25;20.13;;;9.10;;
56541;SDS011;42438;53.174;6.730;2024-01-30T12:01:56;17.25;;;7.28;;
56541;SDS011;42438;53.174;6.730;2024-01-30T12:04:28;14.93;;;6.90;;
56541;SDS011;42438;53.174;6.730;2024-01-30T12:06:59;18.77;;;6.73;;
56541;SDS011;42438;53.174;6.730;2024-01-30T12:09:30;11.80;;;5.43;;
56541;SDS011;42438;53.174;6.730;2024-01-30T12:12:01;13.20;;;5.13;;
56541;SDS011;42438;53.174;6.730;2024-01-30T12:14:31;9.88;;;3.97;;
56541;SDS011;42438;53.174;6.730;2024-01-30T12:17:02;9.13;;;3.95;;
56541;SDS011;42438;53.174;6.730;2024-01-30T12:19:33;10.00;;;4.18;;
56541;SDS011;42438;53.174;6.730;2024-01-30T12:22:04;8.70;;;3.95;;
56541;SDS011;42438;53.174;6.730;2024-01-30T12:24:34;9.63;;;3.28;;
56541;SDS011;42438;53.174;6.730;2024-01-30T12:27:05;10.88;;;3.17;;
56541;SDS011;42438;53.174;6.730;2024-01-30T12:29:36;8.55;;;3.28;;
56541;SDS011;42438;53.174;6.730;2024-01-30T12:32:06;6.00;;;2.90;;
56541;SDS011;42438;53.174;6.730;2024-01-30T12:34:40;8.48;;;2.85;;
56541;SDS011;42438;53.174;6.730;2024-01-30T12:37:11;7.68;;;2.67;;
56541;SDS011;42438;53.174;6.730;2024-01-30T12:39:43;6.70;;;2.28;;
56541;SDS011;42438;53.174;6.730;2024-01-30T12:42:14;5.00;;;2.17;;
56541;SDS011;42438;53.174;6.730;2024-01-30T12:44:45;7.78;;;2.15;;
56541;SDS011;42438;53.174;6.730;2024-01-30T12:47:16;5.50;;;1.85;;
56541;SDS011;42438;53.174;6.730;2024-01-30T12:49:46;7.90;;;1.90;;
56541;SDS011;42438;53.174;6.730;2024-01-30T12:52:17;5.50;;;1.80;;
56541;SDS011;42438;53.174;6.730;2024-01-30T12:54:48;4.85;;;1.70;;
56541;SDS011;42438;53.174;6.730;2024-01-30T12:57:19;5.43;;;1.63;;
56541;SDS011;42438;53.174;6.730;2024-01-30T12:59:50;3.20;;;1.30;;
56541;SDS011;42438;53.174;6.730;2024-01-30T13:02:21;2.40;;;1.15;;
56541;SDS011;42438;53.174;6.730;2024-01-30T13:04:52;2.95;;;1.05;;
56541;SDS011;42438;53.174;6.730;2024-01-30T13:07:24;2.60;;;1.10;;
56541;SDS011;42438;53.174;6.730;2024-01-30T13:09:55;2.35;;;1.13;;
56541;SDS011;42438;53.174;6.730;2024-01-30T13:12:26;3.45;;;1.20;;
56541;SDS011;42438;53.174;6.730;2024-01-30T13:14:58;3.10;;;1.00;;
56541;SDS011;42438;53.174;6.730;2024-01-30T13:17:31;2.67;;;1.05;;
56541;SDS011;42438;53.174;6.730;2024-01-30T13:20:02;2.95;;;1.23;;
56541;SDS011;42438;53.174;6.730;2024-01-30T13:22:34;3.72;;;1.15;;
56541;SDS011;42438;53.174;6.730;2024-01-30T13:25:05;3.03;;;0.93;;
56541;SDS011;42438;53.174;6.730;2024-01-30T13:27:36;3.03;;;0.88;;
56541;SDS011;42438;53.174;6.730;2024-01-30T13:30:07;2.83;;;0.98;;
56541;SDS011;42438;53.174;6.730;2024-01-30T13:32:39;2.95;;;1.00;;
56541;SDS011;42438;53.174;6.730;2024-01-30T13:35:11;1.83;;;0.90;;
56541;SDS011;42438;53.174;6.730;2024-01-30T13:37:42;4.38;;;1.20;;
56541;SDS011;42438;53.174;6.730;2024-01-30T13:40:12;3.00;;;0.98;;
56541;SDS011;42438;53.174;6.730;2024-01-30T13:42:44;2.10;;;0.90;;
56541;SDS011;42438;53.174;6.730;2024-01-30T13:45:15;3.55;;;0.98;;
56541;SDS011;42438;53.174;6.730;2024-01-30T13:47:45;3.50;;;1.02;;
56541;SDS011;42438;53.174;6.730;2024-01-30T13:50:16;2.08;;;1.02;;
56541;SDS011;42438;53.174;6.730;2024-01-30T13:52:46;3.35;;;1.40;;
56541;SDS011;42438;53.174;6.730;2024-01-30T13:55:17;2.75;;;0.90;;
56541;SDS011;42438;53.174;6.730;2024-01-30T13:57:48;3.17;;;1.10;;
56541;SDS011;42438;53.174;6.730;2024-01-30T14:00:18;2.42;;;1.00;;
56541;SDS011;42438;53.174;6.730;2024-01-30T14:02:52;5.05;;;1.00;;
56541;SDS011;42438;53.174;6.730;2024-01-30T14:05:27;2.50;;;1.00;;
56541;SDS011;42438;53.174;6.730;2024-01-30T14:07:58;3.25;;;1.10;;
56541;SDS011;42438;53.174;6.730;2024-01-30T14:10:30;4.20;;;1.50;;
56541;SDS011;42438;53.174;6.730;2024-01-30T14:13:00;2.55;;;1.13;;
56541;SDS011;42438;53.174;6.730;2024-01-30T14:15:31;1.58;;;0.80;;
56541;SDS011;42438;53.174;6.730;2024-01-30T14:18:02;1.98;;;0.80;;
56541;SDS011;42438;53.174;6.730;2024-01-30T14:20:33;3.25;;;1.05;;
56541;SDS011;42438;53.174;6.730;2024-01-30T14:23:03;2.85;;;1.02;;
56541;SDS011;42438;53.174;6.730;2024-01-30T14:25:34;3.58;;;1.10;;
56541;SDS011;42438;53.174;6.730;2024-01-30T14:28:05;2.70;;;1.17;;
56541;SDS011;42438;53.174;6.730;2024-01-30T14:30:36;3.45;;;1.00;;
56541;SDS011;42438;53.174;6.730;2024-01-30T14:33:06;3.30;;;1.27;;
56541;SDS011;42438;53.174;6.730;2024-01-30T14:35:37;3.30;;;1.10;;
56541;SDS011;42438;53.174;6.730;2024-01-30T14:38:07;2.65;;;1.10;;
56541;SDS011;42438;53.174;6.730;2024-01-30T14:40:39;2.85;;;1.30;;
56541;SDS011;42438;53.174;6.730;2024-01-30T14:43:11;3.53;;;1.50;;
56541;SDS011;42438;53.174;6.730;2024-01-30T14:45:42;3.75;;;1.30;;
56541;SDS011;42438;53.174;6.730;2024-01-30T14:48:14;4.20;;;1.42;;
56541;SDS011;42438;53.174;6.730;2024-01-30T14:50:45;2.10;;;1.25;;
56541;SDS011;42438;53.174;6.730;2024-01-30T14:53:16;4.30;;;1.50;;
56541;SDS011;42438;53.174;6.730;2024-01-30T14:55:47;4.75;;;1.58;;